Time;durP1;ratioP1;P1;durP2;ratioP2;P2;SDS_P1;SDS_P2;PMS_P1;PMS_P2;Temp;Humidity;BMP_temperature;BMP_pressure;BME280_temperature;BME280_humidity;BME280_pressure;Samples;Min_cycle;Max_cycle;Signal;HPM_P1;HPM_P2
2023/09/12 00:02:28;;;;;;;5.80;5.00;;;;;;;15.76;81.20;99359.40;109357;1283;22356;-62
2023/09/12 00:04:57;;;;;;;6.80;5.70;;;;;;;15.77;81.24;99357.90;109180;1286;101526;-61
2023/09/12 00:07:26;;;;;;;7.90;4.90;;;;;;;15.79;81.29;99357.20;109289;1286;22333;-62
2023/09/12 00:09:55;;;;;;;7.00;4.90;;;;;;;15.79;81.34;99356.51;109286;1284;99586;-61
2023/09/12 00:12:24;;;;;;;6.90;5.10;;;;;;;15.78;81.41;99357.30;109604;1273;22318;-61
2023/09/12 00:14:53;;;;;;;5.50;4.90;;;;;;;15.75;81.45;99353.50;109605;1285;22063;-62
2023/09/12 00:17:21;;;;;;;5.20;4.40;;;;;;;15.74;81.55;99353.27;109412;1283;100145;-62
2023/09/12 00:19:50;;;;;;;6.30;5.50;;;;;;;15.74;81.55;99353.94;109560;1284;23090;-62
2023/09/12 00:22:18;;;;;;;6.90;5.20;;;;;;;15.71;81.46;99351.17;109449;1284;100020;-61
2023/09/12 00:24:47;;;;;;;6.00;5.00;;;;;;;15.67;81.34;99346.23;109537;1284;22320;-61
2023/09/12 00:27:15;;;;;;;9.70;5.20;;;;;;;15.65;81.47;99345.79;109590;1283;22378;-61
2023/09/12 00:29:44;;;;;;;5.90;5.00;;;;;;;15.64;81.61;99347.77;109489;1283;99478;-61
2023/09/12 00:32:12;;;;;;;5.50;4.80;;;;;;;15.66;81.75;99352.23;109378;1284;23339;-61
2023/09/12 00:34:41;;;;;;;4.80;4.20;;;;;;;15.65;81.88;99351.42;109529;1283;100034;-62
2023/09/12 00:37:09;;;;;;;4.70;4.20;;;;;;;15.66;82.11;99349.38;109609;1283;22207;-62
2023/09/12 00:39:38;;;;;;;5.50;4.40;;;;;;;15.68;82.21;99348.59;109530;1284;100059;-62
2023/09/12 00:42:07;;;;;;;6.00;4.90;;;;;;;15.70;82.31;99346.52;109604;1283;23027;-62
2023/09/12 00:44:35;;;;;;;4.70;4.00;;;;;;;15.72;82.33;99344.12;109636;1283;22317;-62
2023/09/12 00:47:05;;;;;;;9.90;5.00;;;;;;;15.72;82.12;99341.16;109519;1283;99869;-62
2023/09/12 00:49:34;;;;;;;6.40;4.30;;;;;;;15.69;82.18;99342.91;109612;1283;22158;-61
2023/09/12 00:52:03;;;;;;;7.80;4.80;;;;;;;15.68;82.28;99342.25;109269;1285;100567;-61
2023/09/12 00:54:31;;;;;;;4.80;4.00;;;;;;;15.67;82.26;99342.31;109617;1285;22940;-61
2023/09/12 00:57:00;;;;;;;5.60;4.30;;;;;;;15.65;82.21;99340.38;109322;1284;22205;-62
2023/09/12 00:59:29;;;;;;;6.70;4.80;;;;;;;15.63;82.32;99342.98;109524;1283;99325;-62
2023/09/12 01:01:59;;;;;;;8.70;4.30;;;;;;;15.60;82.30;99342.32;109363;1283;22416;-61
2023/09/12 01:04:29;;;;;;;5.40;4.60;;;;;;;15.57;82.32;99342.71;109526;1284;99453;-61
2023/09/12 01:07:04;;;;;;;4.20;3.80;;;;;;;15.53;82.32;99340.70;109604;1286;22274;-62
2023/09/12 01:09:33;;;;;;;6.30;4.80;;;;;;;15.50;82.48;99341.84;109525;1286;99595;-61
2023/09/12 01:12:02;;;;;;;10.40;5.40;;;;;;;15.50;82.51;99339.40;109510;1283;22343;-61
2023/09/12 01:14:31;;;;;;;5.20;4.60;;;;;;;15.48;82.63;99340.73;109599;1286;23016;-62
2023/09/12 01:17:02;;;;;;;8.70;4.50;;;;;;;15.50;82.82;99338.17;109474;1283;99946;-61
2023/09/12 01:19:30;;;;;;;7.10;5.30;;;;;;;15.52;82.84;99337.50;109567;1283;22308;-61
2023/09/12 01:22:28;;;;;;;5.50;4.20;;;;;;;15.52;82.96;99337.52;109193;1284;99790;-62
2023/09/12 01:25:20;;;;;;;4.90;4.40;;;;;;;15.53;82.93;99340.77;108866;1289;22283;-61
2023/09/12 01:27:51;;;;;;;6.20;4.70;;;;;;;15.49;82.67;99340.69;108825;1289;99830;-61
2023/09/12 01:30:23;;;;;;;3.90;3.40;;;;;;;15.40;82.60;99340.28;108922;1289;22206;-61
2023/09/12 01:32:52;;;;;;;5.20;3.50;;;;;;;15.30;82.42;99342.92;108930;1290;23113;-61
2023/09/12 01:35:20;;;;;;;12.20;4.60;;;;;;;15.26;82.70;99344.98;108817;1289;99562;-61
2023/09/12 01:37:49;;;;;;;5.60;3.90;;;;;;;15.23;82.80;99342.73;108963;1289;22328;-61
2023/09/12 01:40:18;;;;;;;4.50;3.90;;;;;;;15.19;82.81;99342.48;108801;1289;101893;-61
2023/09/12 01:42:49;;;;;;;7.00;4.20;;;;;;;15.15;82.91;99340.70;108776;1289;22205;-61
2023/09/12 01:45:18;;;;;;;4.80;4.00;;;;;;;15.12;82.96;99338.66;108774;1290;23108;-61
2023/09/12 01:47:51;;;;;;;5.10;4.30;;;;;;;15.07;82.94;99338.98;108909;1292;22217;-61
2023/09/12 01:50:22;;;;;;;7.30;4.70;;;;;;;15.05;83.16;99337.73;108889;1289;22335;-61
2023/09/12 01:52:51;;;;;;;5.10;3.70;;;;;;;15.04;83.21;99339.25;108684;1290;100037;-61
2023/09/12 01:55:25;;;;;;;5.70;4.30;;;;;;;15.03;83.36;99339.52;108668;1289;22976;-61
2023/09/12 01:57:54;;;;;;;5.60;4.80;;;;;;;15.04;83.61;99338.20;108820;1289;100536;-61
2023/09/12 02:00:22;;;;;;;7.60;4.80;;;;;;;15.06;83.92;99343.44;108908;1289;22224;-61
2023/09/12 02:02:51;;;;;;;5.50;4.70;;;;;;;15.09;84.10;99344.98;109295;1283;22095;-61
2023/09/12 02:05:22;;;;;;;7.20;5.40;;;;;;;15.13;84.14;99345.25;109504;1286;99473;-61
2023/09/12 02:07:50;;;;;;;6.80;5.30;;;;;;;15.15;84.24;99348.58;109358;1283;23065;-61
2023/09/12 02:10:19;;;;;;;6.30;5.30;;;;;;;15.19;84.49;99348.45;109212;1283;99700;-61
2023/09/12 02:12:48;;;;;;;7.80;5.20;;;;;;;15.24;84.48;99351.42;109592;1283;22677;-61
2023/09/12 02:15:16;;;;;;;5.80;4.40;;;;;;;15.28;84.37;99351.14;109457;1285;22219;-61
2023/09/12 02:17:45;;;;;;;6.20;5.00;;;;;;;15.31;84.09;99348.85;109489;1273;100182;-61
2023/09/12 02:20:14;;;;;;;5.50;4.40;;;;;;;15.31;84.27;99350.08;109280;1284;22409;-61
2023/09/12 02:22:43;;;;;;;5.80;4.90;;;;;;;15.30;84.16;99346.30;109214;1286;99567;-61
2023/09/12 02:25:11;;;;;;;6.60;4.80;;;;;;;15.24;83.96;99343.18;109547;1283;22440;-61
2023/09/12 02:27:40;;;;;;;4.50;3.80;;;;;;;15.20;84.11;99342.99;109510;1283;99720;-62
2023/09/12 02:30:09;;;;;;;5.10;4.20;;;;;;;15.12;84.04;99340.21;109582;1284;22232;-61
2023/09/12 02:32:37;;;;;;;6.40;4.00;;;;;;;15.05;83.99;99341.13;109621;1286;22388;-61
2023/09/12 02:35:06;;;;;;;5.60;4.40;;;;;;;14.99;84.28;99339.56;109497;1284;99913;-61
2023/09/12 02:37:35;;;;;;;4.90;4.00;;;;;;;14.94;84.43;99341.64;109592;1285;22187;-61
2023/09/12 02:40:05;;;;;;;7.60;4.60;;;;;;;14.92;84.61;99342.33;109487;1284;99746;-62
2023/09/12 02:42:34;;;;;;;7.40;4.80;;;;;;;14.89;84.59;99340.43;109559;1279;22153;-61
2023/09/12 02:45:03;;;;;;;5.00;4.50;;;;;;;14.85;84.69;99341.09;109332;1286;22142;-61
2023/09/12 02:47:31;;;;;;;4.70;3.90;;;;;;;14.83;84.78;99342.13;109442;1283;99719;-61
2023/09/12 02:50:00;;;;;;;6.50;4.60;;;;;;;14.83;85.18;99341.23;109575;1283;23627;-61
2023/09/12 02:52:28;;;;;;;7.30;4.40;;;;;;;14.84;85.24;99343.23;109459;1284;104187;-61
2023/09/12 02:54:57;;;;;;;5.90;3.70;;;;;;;14.84;85.25;99343.95;109407;1286;22303;-61
2023/09/12 02:57:25;;;;;;;3.80;3.10;;;;;;;14.85;85.13;99341.60;109394;1286;22315;-60
2023/09/12 02:59:54;;;;;;;4.20;3.30;;;;;;;14.79;84.73;99338.34;109616;1279;22233;-60
2023/09/12 03:02:22;;;;;;;5.10;4.10;;;;;;;14.70;84.48;99344.23;109426;1286;22385;-61
2023/09/12 03:04:51;;;;;;;4.80;4.20;;;;;;;14.64;85.07;99340.46;109529;1288;99379;-60
2023/09/12 03:07:19;;;;;;;8.90;4.40;;;;;;;14.67;85.33;99345.19;109623;1270;22079;-61
2023/09/12 03:09:49;;;;;;;5.10;3.80;;;;;;;14.64;85.25;99343.49;109329;1286;99533;-61
2023/09/12 03:12:18;;;;;;;6.20;4.30;;;;;;;14.58;85.31;99339.15;109611;1283;22180;-61
2023/09/12 03:14:46;;;;;;;5.20;3.80;;;;;;;14.54;85.31;99338.15;109368;1286;23617;-61
2023/09/12 03:17:14;;;;;;;7.90;4.30;;;;;;;14.51;85.46;99340.11;109352;1288;100703;-61
2023/09/12 03:19:43;;;;;;;5.50;4.50;;;;;;;14.48;85.55;99337.30;109563;1285;22321;-61
2023/09/12 03:22:12;;;;;;;4.90;4.10;;;;;;;14.47;85.63;99341.98;109499;1288;100135;-61
2023/09/12 03:24:40;;;;;;;5.00;4.20;;;;;;;14.45;85.75;99341.21;109444;1284;22380;-61
2023/09/12 03:27:09;;;;;;;4.30;3.90;;;;;;;14.44;86.02;99339.52;109607;1284;22778;-61
2023/09/12 03:29:37;;;;;;;4.80;4.20;;;;;;;14.43;86.11;99341.19;109521;1283;99950;-60
2023/09/12 03:32:06;;;;;;;4.00;3.40;;;;;;;14.43;86.47;99338.02;109593;1283;22147;-61
2023/09/12 03:34:34;;;;;;;4.70;3.60;;;;;;;14.40;86.18;99337.23;109551;1283;99932;-61
2023/09/12 03:37:03;;;;;;;10.40;3.90;;;;;;;14.35;86.22;99341.70;109574;1283;22359;-61
2023/09/12 03:39:32;;;;;;;6.10;3.90;;;;;;;14.34;86.38;99340.09;109518;1286;99664;-61
2023/09/12 03:42:00;;;;;;;4.90;3.80;;;;;;;14.34;86.58;99342.69;109592;1283;22045;-61
2023/09/12 03:44:29;;;;;;;5.30;4.20;;;;;;;14.34;86.77;99338.14;109599;1283;22386;-61
2023/09/12 03:46:58;;;;;;;9.30;4.60;;;;;;;14.34;86.76;99337.09;109493;1286;100001;-61
2023/09/12 03:49:28;;;;;;;6.10;3.10;;;;;;;14.32;86.61;99339.67;109564;1273;22319;-61
2023/09/12 03:51:57;;;;;;;5.50;3.90;;;;;;;14.29;86.82;99341.27;109536;1285;99746;-61
2023/09/12 03:54:25;;;;;;;5.80;4.00;;;;;;;14.28;86.82;99344.66;109594;1284;22981;-61
2023/09/12 03:56:54;;;;;;;6.00;4.30;;;;;;;14.31;87.17;99338.70;109354;1284;22255;-61
2023/09/12 03:59:22;;;;;;;4.70;3.80;;;;;;;14.34;87.35;99337.29;109451;1284;100047;-61
2023/09/12 04:01:51;;;;;;;6.50;4.10;;;;;;;14.33;87.42;99337.13;109572;1284;22953;-61
2023/09/12 04:04:19;;;;;;;4.90;4.00;;;;;;;14.32;87.28;99341.64;109482;1286;99798;-61
2023/09/12 04:06:48;;;;;;;4.70;3.80;;;;;;;14.28;87.30;99340.27;109346;1286;22169;-61
2023/09/12 04:09:16;;;;;;;5.30;4.10;;;;;;;14.28;87.53;99343.77;109393;1284;22295;-61
2023/09/12 04:11:45;;;;;;;6.60;4.70;;;;;;;14.29;87.55;99339.91;109482;1286;99174;-61
2023/09/12 04:14:15;;;;;;;6.90;4.30;;;;;;;14.29;87.66;99341.27;109380;1283;22215;-61
2023/09/12 04:16:43;;;;;;;6.80;4.80;;;;;;;14.29;87.69;99338.52;109465;1277;99545;-61
2023/09/12 04:19:14;;;;;;;16.40;4.40;;;;;;;14.27;87.55;99335.29;109540;1284;22296;-61
2023/09/12 04:21:42;;;;;;;17.50;6.00;;;;;;;14.23;87.55;99335.38;109461;1283;99918;-61
2023/09/12 04:24:11;;;;;;;6.70;4.70;;;;;;;14.22;87.82;99332.15;109599;1284;22423;-61
2023/09/12 04:26:39;;;;;;;5.90;4.60;;;;;;;14.22;87.69;99331.30;109623;1287;22380;-61
2023/09/12 04:29:08;;;;;;;6.80;4.80;;;;;;;14.20;87.79;99328.08;109408;1283;100417;-61
2023/09/12 04:31:36;;;;;;;7.10;4.50;;;;;;;14.20;87.80;99330.36;109568;1283;22999;-61
2023/09/12 04:34:05;;;;;;;7.00;3.90;;;;;;;14.23;88.10;99328.79;109502;1286;99921;-60
2023/09/12 04:36:34;;;;;;;6.40;3.90;;;;;;;14.24;87.83;99328.70;109224;1283;22167;-61
2023/09/12 04:39:02;;;;;;;5.70;4.30;;;;;;;14.27;88.06;99327.63;109420;1284;22302;-61
2023/09/12 04:41:32;;;;;;;5.40;4.30;;;;;;;14.31;88.35;99326.42;109532;1284;100035;-61
2023/09/12 04:44:02;;;;;;;7.10;4.50;;;;;;;14.35;88.28;99324.05;109383;1284;22168;-61
2023/09/12 04:46:30;;;;;;;8.70;4.50;;;;;;;14.37;88.19;99322.01;109512;1284;100427;-61
2023/09/12 04:48:59;;;;;;;5.70;3.80;;;;;;;14.37;88.05;99321.80;109367;1286;22375;-61
2023/09/12 04:51:27;;;;;;;6.00;3.90;;;;;;;14.40;88.12;99323.38;109537;1284;22303;-61
2023/09/12 04:53:56;;;;;;;5.40;3.40;;;;;;;14.45;88.38;99322.45;109507;1285;22292;-61
2023/09/12 04:56:25;;;;;;;4.40;3.40;;;;;;;14.53;88.35;99325.96;109632;1286;22249;-61
2023/09/12 04:58:53;;;;;;;5.60;4.10;;;;;;;14.61;88.53;99329.99;109335;1284;99334;-60
2023/09/12 05:01:22;;;;;;;6.00;4.10;;;;;;;14.70;88.60;99330.95;109510;1284;22154;-61
2023/09/12 05:03:50;;;;;;;9.20;3.60;;;;;;;14.81;88.77;99332.25;109447;1284;99482;-61
2023/09/12 05:06:19;;;;;;;6.90;5.00;;;;;;;14.91;88.62;99333.46;109385;1283;22966;-61
2023/09/12 05:08:49;;;;;;;6.60;4.70;;;;;;;14.99;88.52;99332.16;109360;1284;22118;-61
2023/09/12 05:11:18;;;;;;;8.80;4.40;;;;;;;15.08;88.58;99331.90;109292;1283;99507;-61
2023/09/12 05:13:46;;;;;;;7.10;4.10;;;;;;;15.20;88.70;99332.65;109616;1284;22309;-61
2023/09/12 05:16:15;;;;;;;5.90;3.70;;;;;;;15.30;88.72;99331.17;109302;1284;99273;-63
2023/09/12 05:18:43;;;;;;;3.60;3.20;;;;;;;15.42;88.76;99330.66;109562;1279;22311;-61
2023/09/12 05:21:12;;;;;;;9.50;4.50;;;;;;;15.55;88.89;99335.34;109512;1285;22143;-61
2023/09/12 05:23:41;;;;;;;5.80;4.20;;;;;;;15.70;89.17;99334.91;109282;1286;100146;-61
2023/09/12 05:26:09;;;;;;;5.60;4.40;;;;;;;15.88;89.27;99336.04;109372;1286;22299;-64
2023/09/12 05:28:38;;;;;;;6.40;4.20;;;;;;;16.05;89.19;99338.61;109516;1283;99149;-62
2023/09/12 05:31:06;;;;;;;4.20;3.70;;;;;;;16.22;89.05;99337.17;109601;1286;23008;-60
2023/09/12 05:33:35;;;;;;;7.00;4.70;;;;;;;16.31;88.92;99335.55;109505;1285;100101;-63
2023/09/12 05:36:04;;;;;;;6.70;3.90;;;;;;;16.43;88.90;99330.27;109563;1286;23213;-58
2023/09/12 05:38:33;;;;;;;5.30;4.10;;;;;;;16.58;89.08;99331.72;109536;1284;22287;-63
2023/09/12 05:41:02;;;;;;;6.20;4.50;;;;;;;16.73;89.52;99332.98;109100;1289;100023;-62
2023/09/12 05:43:34;;;;;;;5.80;4.60;;;;;;;16.91;89.79;99333.23;109184;1289;22316;-63
2023/09/12 05:46:02;;;;;;;9.70;5.10;;;;;;;17.06;90.18;99332.53;109471;1288;99946;-63
2023/09/12 05:48:31;;;;;;;5.80;3.60;;;;;;;17.25;90.41;99328.71;109324;1286;22152;-62
2023/09/12 05:51:00;;;;;;;5.20;3.90;;;;;;;17.46;90.59;99327.90;109353;1283;22302;-62
2023/09/12 05:53:30;;;;;;;4.90;3.50;;;;;;;17.64;90.41;99335.20;109308;1284;103575;-63
2023/09/12 05:55:59;;;;;;;6.20;4.30;;;;;;;17.84;90.35;99334.95;109473;1284;23214;-61
2023/09/12 05:58:28;;;;;;;5.10;4.10;;;;;;;18.04;90.24;99334.53;109417;1284;99493;-62
2023/09/12 06:00:57;;;;;;;5.80;3.30;;;;;;;18.26;90.15;99336.41;109267;1286;22225;-61
2023/09/12 06:03:26;;;;;;;9.10;4.20;;;;;;;18.46;90.13;99338.90;109467;1284;22357;-64
2023/09/12 06:05:55;;;;;;;6.70;4.20;;;;;;;18.69;90.29;99337.95;109226;1284;247705;-59
2023/09/12 06:08:23;;;;;;;6.10;4.30;;;;;;;18.88;90.07;99337.17;109502;1285;22383;-60
2023/09/12 06:10:54;;;;;;;6.80;5.00;;;;;;;19.08;90.02;99336.80;109207;1286;99766;-58
2023/09/12 06:13:23;;;;;;;7.80;3.80;;;;;;;19.28;89.98;99336.99;109413;1284;22032;-57
2023/09/12 06:15:52;;;;;;;5.20;3.90;;;;;;;19.50;89.85;99339.40;109291;1284;99862;-57
2023/09/12 06:18:20;;;;;;;8.90;4.30;;;;;;;19.72;89.62;99339.95;109538;1284;22919;-58
2023/09/12 06:20:49;;;;;;;6.70;4.40;;;;;;;19.95;89.56;99338.66;109588;1286;22113;-61
2023/09/12 06:23:18;;;;;;;6.20;3.90;;;;;;;20.18;89.22;99341.13;109514;1285;99933;-56
2023/09/12 06:25:47;;;;;;;5.60;4.10;;;;;;;20.39;89.01;99338.90;109573;1285;23185;-62
2023/09/12 06:28:25;;;;;;;6.80;4.10;;;;;;;20.60;88.80;99331.98;109311;1285;99739;-58
2023/09/12 06:30:54;;;;;;;7.70;3.60;;;;;;;20.80;88.45;99331.96;109555;1286;22318;-63
2023/09/12 06:33:25;;;;;;;8.40;4.10;;;;;;;20.97;88.27;99336.52;109287;1285;23118;-60
2023/09/12 06:35:54;;;;;;;12.10;4.00;;;;;;;21.17;88.01;99336.11;109470;1283;99104;-62
2023/09/12 06:38:24;;;;;;;5.00;3.90;;;;;;;21.35;87.77;99334.58;109530;1283;22168;-62
2023/09/12 06:40:53;;;;;;;6.70;4.10;;;;;;;21.54;87.39;99332.75;109403;1286;100176;-59
2023/09/12 06:43:22;;;;;;;6.60;4.00;;;;;;;21.72;87.13;99329.71;109502;1285;22450;-57
2023/09/12 06:45:51;;;;;;;3.70;3.40;;;;;;;21.91;86.75;99330.80;109421;1284;99535;-57
2023/09/12 06:48:20;;;;;;;5.50;3.40;;;;;;;22.12;86.58;99326.54;109482;1289;22287;-62
2023/09/12 06:50:50;;;;;;;4.90;3.20;;;;;;;22.43;86.33;99331.39;109545;1284;22870;-68
2023/09/12 06:53:22;;;;;;;9.60;3.40;;;;;;;22.73;85.88;99328.80;109154;1286;99354;-63
2023/09/12 06:55:51;;;;;;;4.00;3.10;;;;;;;23.03;85.14;99327.64;109298;1286;23033;-63
2023/09/12 06:58:19;;;;;;;9.40;4.10;;;;;;;23.38;84.88;99328.20;109313;1291;99841;-62
2023/09/12 07:00:48;;;;;;;8.70;3.50;;;;;;;23.63;83.91;99327.14;109616;1285;22207;-62
2023/09/12 07:03:16;;;;;;;4.60;2.90;;;;;;;23.79;83.13;99328.25;109284;1289;22372;-63
2023/09/12 07:05:45;;;;;;;3.50;3.00;;;;;;;23.98;82.76;99328.48;109394;1285;101446;-63
2023/09/12 07:08:14;;;;;;;5.80;3.70;;;;;;;24.34;82.57;99331.84;109424;1287;22383;-62
2023/09/12 07:10:46;;;;;;;5.20;2.70;;;;;;;24.74;81.89;99334.29;109522;1286;99967;-61
2023/09/12 07:13:14;;;;;;;4.20;3.30;;;;;;;25.04;80.89;99337.36;109395;1284;22157;-61
2023/09/12 07:15:43;;;;;;;6.10;3.50;;;;;;;25.30;80.38;99332.98;109534;1286;100165;-62
2023/09/12 07:18:12;;;;;;;4.10;3.00;;;;;;;25.52;79.65;99332.74;109393;1284;22237;-61
2023/09/12 07:20:41;;;;;;;3.80;2.80;;;;;;;25.69;79.19;99334.81;109568;1282;23034;-61
2023/09/12 07:23:09;;;;;;;2.90;2.50;;;;;;;25.92;78.54;99332.67;109531;1287;100175;-59
2023/09/12 07:25:40;;;;;;;5.20;3.10;;;;;;;26.07;77.71;99330.86;109546;1286;22312;-61
2023/09/12 07:28:09;;;;;;;3.80;2.70;;;;;;;26.18;76.98;99330.41;109461;1286;101669;-62
2023/09/12 07:30:37;;;;;;;7.10;2.80;;;;;;;26.25;76.41;99335.24;109416;1286;22975;-61
2023/09/12 07:33:06;;;;;;;3.40;2.90;;;;;;;26.40;75.67;99337.48;109602;1280;22333;-61
2023/09/12 07:35:35;;;;;;;4.80;3.20;;;;;;;26.65;75.21;99337.61;109330;1286;22146;-61
2023/09/12 07:38:04;;;;;;;2.90;2.20;;;;;;;27.07;74.72;99339.02;109559;1288;22329;-65
2023/09/12 07:40:32;;;;;;;5.20;3.10;;;;;;;27.49;73.98;99336.84;109464;1283;99441;-64
2023/09/12 07:43:02;;;;;;;4.60;2.00;;;;;;;27.79;73.42;99341.56;109299;1284;22886;-65
2023/09/12 07:45:38;;;;;;;3.40;2.70;;;;;;;28.11;72.79;99341.04;109106;1284;100392;-64
2023/09/12 07:48:09;;;;;;;3.70;3.00;;;;;;;28.62;72.15;99342.98;109412;1284;23665;-65
2023/09/12 07:50:38;;;;;;;3.20;2.60;;;;;;;29.20;71.09;99345.95;109293;1284;22815;-64
2023/09/12 07:53:07;;;;;;;4.70;2.30;;;;;;;29.70;70.03;99343.06;109311;1286;99509;-66
2023/09/12 07:55:46;;;;;;;3.20;2.10;;;;;;;30.29;70.15;99342.81;109185;1289;22982;-65
2023/09/12 07:58:18;;;;;;;4.90;2.60;;;;;;;31.10;69.44;99340.77;109422;1277;100427;-65
2023/09/12 08:00:47;;;;;;;2.90;2.10;;;;;;;31.80;69.01;99343.50;109581;1276;22937;-65
2023/09/12 08:03:17;;;;;;;6.90;2.30;;;;;;;33.08;69.18;99342.55;109522;1286;22514;-65
2023/09/12 08:05:57;;;;;;;5.40;2.60;;;;;;;34.42;68.27;99342.19;109145;1288;99396;-66
2023/09/12 08:08:26;;;;;;;3.70;2.10;;;;;;;35.48;66.17;99345.08;109420;1284;22162;-57
2023/09/12 08:10:54;;;;;;;3.40;2.40;;;;;;;37.15;67.20;99345.06;109329;1283;99517;-59
2023/09/12 08:13:27;;;;;;;2.30;2.00;;;;;;;39.59;65.88;99339.35;109587;1289;22191;-59
2023/09/12 08:15:56;;;;;;;4.60;2.30;;;;;;;41.78;63.16;99338.10;109367;1284;100224;-59
2023/09/12 08:18:28;;;;;;;1.70;1.60;;;;;;;42.76;58.70;99337.08;109578;1286;22195;-59
2023/09/12 08:20:57;;;;;;;2.00;1.60;;;;;;;43.12;56.99;99338.30;109241;1289;22321;-57
2023/09/12 08:23:26;;;;;;;4.30;2.20;;;;;;;43.98;54.93;99338.66;109406;1283;100492;-61
2023/09/12 08:25:55;;;;;;;3.50;1.70;;;;;;;44.93;52.49;99343.17;109502;1286;23104;-60
2023/09/12 08:28:24;;;;;;;2.00;1.70;;;;;;;45.44;50.67;99344.45;109412;1289;99325;-59
2023/09/12 08:30:55;;;;;;;2.80;1.60;;;;;;;45.84;48.07;99346.46;109317;1279;22294;-59
2023/09/12 08:33:27;;;;;;;3.30;1.80;;;;;;;46.27;46.19;99349.91;109369;1283;22520;-60
2023/09/12 08:35:56;;;;;;;3.30;1.80;;;;;;;46.55;44.33;99349.08;109095;1283;99584;-60
2023/09/12 08:38:25;;;;;;;1.90;1.70;;;;;;;46.74;42.68;99347.96;109321;1280;23189;-60
2023/09/12 08:40:54;;;;;;;3.90;2.30;;;;;;;47.47;40.49;99348.92;109437;1286;99360;-61
2023/09/12 08:43:22;;;;;;;15.10;2.80;;;;;;;47.77;39.48;99349.66;109469;1283;22153;-60
2023/09/12 08:45:51;;;;;;;3.10;2.00;;;;;;;48.91;38.53;99352.54;109476;1280;100158;-60
2023/09/12 08:48:23;;;;;;;2.80;2.20;;;;;;;50.17;36.93;99359.16;109474;1283;22313;-61
2023/09/12 08:50:53;;;;;;;1.80;1.70;;;;;;;51.12;35.06;99360.08;109574;1280;22296;-53
2023/09/12 08:53:22;;;;;;;3.60;1.90;;;;;;;51.53;33.11;99357.84;109507;1284;99342;-56
2023/09/12 08:55:52;;;;;;;2.30;2.00;;;;;;;51.32;31.71;99358.22;109373;1284;22236;-57
2023/09/12 08:58:22;;;;;;;2.00;1.90;;;;;;;51.70;30.53;99348.23;109358;1286;100325;-56
2023/09/12 09:00:51;;;;;;;4.30;2.20;;;;;;;51.58;29.14;99345.49;109633;1286;22164;-63
2023/09/12 09:03:22;;;;;;;2.90;1.70;;;;;;;52.39;28.48;99346.48;109555;1286;22163;-58
2023/09/12 09:05:52;;;;;;;2.20;2.00;;;;;;;53.31;27.40;99346.61;109503;1279;100338;-59
2023/09/12 09:08:25;;;;;;;2.00;1.90;;;;;;;54.46;26.22;99349.40;109237;1284;21763;-61
2023/09/12 09:10:58;;;;;;;2.60;2.40;;;;;;;54.25;24.43;99348.73;109518;1284;99578;-57
2023/09/12 09:13:27;;;;;;;4.30;2.50;;;;;;;52.53;22.78;99343.38;109402;1289;23066;-56
2023/09/12 09:16:17;;;;;;;2.70;2.50;;;;;;;52.76;22.46;99343.37;109319;1284;99441;-57
2023/09/12 09:19:04;;;;;;;2.80;2.60;;;;;;;52.56;21.78;99338.39;109624;1283;22056;-57
2023/09/12 09:21:33;;;;;;;3.40;2.70;;;;;;;53.19;21.74;99340.63;109671;1286;22284;-57
2023/09/12 09:24:06;;;;;;;3.20;3.00;;;;;;;54.42;21.39;99344.78;109409;1286;99192;-56
2023/09/12 09:26:53;;;;;;;4.10;3.80;;;;;;;54.79;20.21;99340.70;109450;1286;22145;-71
2023/09/12 09:29:21;;;;;;;4.10;3.80;;;;;;;54.59;19.74;99335.94;109380;1286;99939;-67
2023/09/12 09:31:51;;;;;;;4.50;4.20;;;;;;;54.62;19.29;99333.58;109619;1283;22165;-59
2023/09/12 09:34:23;;;;;;;4.70;4.40;;;;;;;55.57;19.45;99335.15;109335;1284;99784;-60
2023/09/12 09:36:54;;;;;;;5.70;5.30;;;;;;;57.04;19.03;99327.41;109393;1291;22432;-61
2023/09/12 09:39:27;;;;;;;5.60;5.30;;;;;;;58.01;18.25;99323.95;109620;1285;22197;-58
2023/09/12 09:41:57;;;;;;;7.00;6.50;;;;;;;57.93;17.09;99318.87;109492;1284;99426;-62
2023/09/12 09:44:27;;;;;;;6.90;6.50;;;;;;;56.91;16.99;99317.68;109564;1283;22939;-55
2023/09/12 09:47:02;;;;;;;7.60;7.20;;;;;;;57.64;16.88;99314.52;109516;1284;100313;-60
2023/09/12 09:49:34;;;;;;;8.40;7.70;;;;;;;57.83;15.74;99305.22;109181;1283;22407;-64
2023/09/12 09:52:05;;;;;;;8.30;7.90;;;;;;;56.71;15.53;99303.16;109119;1283;100572;-56
2023/09/12 09:54:34;;;;;;;10.60;10.00;;;;;;;57.39;15.57;99302.20;109560;1285;22310;-55
2023/09/12 09:57:04;;;;;;;10.10;9.40;;;;;;;58.41;15.51;99305.50;109587;1286;23222;-56
2023/09/12 09:59:32;;;;;;;11.40;10.60;;;;;;;59.41;15.13;99305.64;109423;1284;99706;-57
2023/09/12 10:02:03;;;;;;;12.60;11.80;;;;;;;59.36;14.61;99305.19;109426;1283;22267;-57
2023/09/12 10:04:35;;;;;;;13.50;12.70;;;;;;;59.10;14.06;99303.89;109429;1283;99714;-59
2023/09/12 10:07:07;;;;;;;13.90;13.00;;;;;;;58.26;13.95;99297.83;109536;1285;22292;-59
2023/09/12 10:09:39;;;;;;;15.60;14.70;;;;;;;57.66;13.35;99294.36;109302;1283;22338;-62
2023/09/12 10:12:09;;;;;;;16.20;15.40;;;;;;;56.68;13.55;99290.34;109180;1289;22308;-54
2023/09/12 10:14:39;;;;;;;18.60;16.10;;;;;;;57.02;13.80;99286.63;109381;1283;22916;-59
2023/09/12 10:17:13;;;;;;;17.30;16.00;;;;;;;58.11;13.85;99290.12;109338;1283;100300;-61
2023/09/12 10:19:50;;;;;;;18.40;17.40;;;;;;;58.96;13.44;99287.72;109564;1283;22694;-61
2023/09/12 10:22:27;;;;;;;20.80;19.40;;;;;;;59.26;13.40;99285.96;109309;1283;100057;-61
2023/09/12 10:24:59;;;;;;;21.40;20.20;;;;;;;59.52;12.99;99288.82;109596;1283;22777;-62
2023/09/12 10:27:29;;;;;;;22.60;21.40;;;;;;;60.11;12.59;99288.57;109607;1284;23198;-62
2023/09/12 10:30:00;;;;;;;24.50;23.20;;;;;;;59.65;12.23;99284.53;109468;1283;99548;-61
2023/09/12 10:32:30;;;;;;;26.60;25.20;;;;;;;59.47;11.85;99285.17;109560;1284;22285;-62
2023/09/12 10:35:03;;;;;;;25.50;23.80;;;;;;;58.76;11.61;99276.61;109439;1283;99902;-62
2023/09/12 10:37:35;;;;;;;33.70;25.70;;;;;;;57.59;11.32;99274.16;109372;1280;22948;-56
2023/09/12 10:40:07;;;;;;;27.30;25.30;;;;;;;57.30;11.69;99274.11;109488;1283;101200;-61
2023/09/12 10:42:36;;;;;;;24.20;22.80;;;;;;;58.15;11.86;99273.48;109588;1288;22459;-59
2023/09/12 10:45:08;;;;;;;27.30;24.90;;;;;;;59.33;11.44;99274.16;109576;1283;23159;-60
2023/09/12 10:47:38;;;;;;;25.20;23.60;;;;;;;58.57;10.93;99275.40;109143;1284;99737;-59
2023/09/12 10:50:08;;;;;;;27.90;26.00;;;;;;;57.90;10.80;99275.63;109576;1284;22879;-58
2023/09/12 10:52:39;;;;;;;26.00;24.10;;;;;;;56.95;10.83;99272.91;109476;1283;100679;-60
2023/09/12 10:55:18;;;;;;;25.70;23.70;;;;;;;56.60;10.68;99275.15;109532;1285;22246;-62
2023/09/12 10:58:04;;;;;;;25.70;23.30;;;;;;;55.84;10.80;99266.00;109160;1283;99879;-56
2023/09/12 11:00:33;;;;;;;27.00;25.60;;;;;;;55.94;11.10;99265.50;109576;1286;23128;-58
2023/09/12 11:03:31;;;;;;;26.10;24.60;;;;;;;57.05;11.01;99260.67;109604;1286;22179;-61
2023/09/12 11:06:01;;;;;;;30.80;27.60;;;;;;;57.42;11.09;99261.71;109250;1286;99555;-61
2023/09/12 11:08:36;;;;;;;29.60;27.80;;;;;;;57.73;11.17;99265.42;109564;1285;23049;-58
2023/09/12 11:11:20;;;;;;;31.80;30.00;;;;;;;59.33;11.14;99266.24;109472;1283;101252;-56
2023/09/12 11:14:08;;;;;;;35.20;33.00;;;;;;;59.84;10.80;99270.31;109586;1276;22299;-69
2023/09/12 11:16:36;;;;;;;38.20;36.10;;;;;;;59.73;10.77;99264.70;109326;1286;100165;-60
2023/09/12 11:19:18;;;;;;;41.80;39.30;;;;;;;60.24;10.63;99274.67;109571;1284;22984;-58
2023/09/12 11:21:51;;;;;;;45.60;42.40;;;;;;;60.53;10.09;99272.33;109511;1284;99954;-58
2023/09/12 11:24:20;;;;;;;47.00;44.00;;;;;;;60.59;10.26;99270.58;109602;1283;22995;-60
2023/09/12 11:27:08;;;;;;;50.60;47.40;;;;;;;60.88;10.17;99276.48;109352;1285;22789;-58
2023/09/12 11:29:39;;;;;;;49.90;47.10;;;;;;;60.85;9.84;99277.10;109178;1284;101153;-59
2023/09/12 11:32:08;;;;;;;53.90;50.70;;;;;;;60.71;9.83;99277.27;109396;1285;22154;-60
2023/09/12 11:34:48;;;;;;;55.70;52.70;;;;;;;61.40;9.86;99277.98;109492;1286;99866;-59
2023/09/12 11:37:24;;;;;;;58.90;55.60;;;;;;;62.14;9.58;99279.31;109213;1286;22340;-60